Time;durP1;ratioP1;P1;durP2;ratioP2;P2;SDS_P1;SDS_P2;PMS_P1;PMS_P2;Temp;Humidity;BMP_temperature;BMP_pressure;BME280_temperature;BME280_humidity;BME280_pressure;Samples;Min_cycle;Max_cycle;Signal;HPM_P1;HPM_P2
2022/09/16 00:02:01;;;;;;;;;;;22.40;88.30;;;;;;5044344;28;19964;-62
2022/09/16 00:04:27;;;;;;;;;;;22.10;88.40;;;;;;5054656;28;19972;-62
2022/09/16 00:06:53;;;;;;;;;;;21.80;88.20;;;;;;5054155;28;19931;-62
2022/09/16 00:09:18;;;;;;;;;;;22.00;88.50;;;;;;5045930;28;19925;-62
2022/09/16 00:11:44;;;;;;;;;;;22.00;88.40;;;;;;5043252;28;20008;-62
2022/09/16 00:14:10;;;;;;;;;;;22.10;88.60;;;;;;5053411;28;19925;-62
2022/09/16 00:16:35;;;;;;;;;;;22.20;88.40;;;;;;5036353;28;20024;-63
2022/09/16 00:19:02;;;;;;;;;;;21.90;88.40;;;;;;5054062;28;19964;-62
2022/09/16 00:21:27;;;;;;;;;;;21.90;88.40;;;;;;5053477;28;19925;-62
2022/09/16 00:23:54;;;;;;;;;;;22.40;88.60;;;;;;5050815;28;19932;-62
2022/09/16 00:26:19;;;;;;;;;;;22.10;88.60;;;;;;5034712;28;19929;-62
2022/09/16 00:28:48;;;;;;;;;;;22.00;88.40;;;;;;5034404;28;20379;-62
2022/09/16 00:31:14;;;;;;;;;;;21.80;87.10;;;;;;5039895;28;19921;-62
2022/09/16 00:33:40;;;;;;;;;;;22.20;88.50;;;;;;5033249;28;19931;-63
2022/09/16 00:36:15;;;;;;;;;;;21.90;88.10;;;;;;5053840;28;19925;-62
2022/09/16 00:38:41;;;;;;;;;;;22.10;88.60;;;;;;5035958;28;19932;-62
2022/09/16 00:41:07;;;;;;;;;;;22.10;88.30;;;;;;5053788;28;19925;-62
2022/09/16 00:43:52;;;;;;;;;;;21.80;88.20;;;;;;5040584;28;19931;-62
2022/09/16 00:46:47;;;;;;;;;;;22.10;87.30;;;;;;5025031;28;19932;-62
2022/09/16 00:49:15;;;;;;;;;;;22.00;87.20;;;;;;5031800;28;20333;-61
2022/09/16 00:51:41;;;;;;;;;;;21.90;87.10;;;;;;5027874;28;19943;-62
2022/09/16 00:54:08;;;;;;;;;;;21.90;88.30;;;;;;5011810;28;20012;-63
2022/09/16 00:56:35;;;;;;;;;;;21.80;88.30;;;;;;5011975;28;19929;-63
2022/09/16 00:59:08;;;;;;;;;;;21.90;88.60;;;;;;4996230;28;19976;-62
2022/09/16 01:01:34;;;;;;;;;;;22.00;87.30;;;;;;5012306;28;19956;-62
2022/09/16 01:04:03;;;;;;;;;;;21.80;88.50;;;;;;5013609;28;19926;-62
2022/09/16 01:06:29;;;;;;;;;;;21.90;87.20;;;;;;4994733;28;19933;-62
2022/09/16 01:08:55;;;;;;;;;;;21.80;88.40;;;;;;4995495;28;19926;-62
2022/09/16 01:11:20;;;;;;;;;;;21.90;88.60;;;;;;5012571;28;19932;-62
2022/09/16 01:13:46;;;;;;;;;;;22.00;88.50;;;;;;4990099;28;20012;-62
2022/09/16 01:16:33;;;;;;;;;;;21.90;87.80;;;;;;4992090;28;19929;-62
2022/09/16 01:19:04;;;;;;;;;;;22.30;87.50;;;;;;5008001;28;19976;-62
2022/09/16 01:21:30;;;;;;;;;;;22.10;87.40;;;;;;4992405;28;19934;-65
2022/09/16 01:24:04;;;;;;;;;;;22.20;88.70;;;;;;4991104;28;20014;-62
2022/09/16 01:26:39;;;;;;;;;;;22.10;87.50;;;;;;5022252;28;20032;-62
2022/09/16 01:29:11;;;;;;;;;;;21.90;87.30;;;;;;5016255;28;20450;-62
2022/09/16 01:31:55;;;;;;;;;;;21.80;87.20;;;;;;5013916;28;19925;-62
2022/09/16 01:34:40;;;;;;;;;;;22.00;87.30;;;;;;5027092;28;20052;-67
2022/09/16 01:37:07;;;;;;;;;;;21.80;87.20;;;;;;5033180;28;20295;-62
2022/09/16 01:39:42;;;;;;;;;;;21.80;88.50;;;;;;5031620;28;20375;-62
2022/09/16 01:42:31;;;;;;;;;;;21.80;87.20;;;;;;5033236;28;19932;-62
2022/09/16 01:44:57;;;;;;;;;;;21.80;87.20;;;;;;5027460;28;20008;-62
2022/09/16 01:47:36;;;;;;;;;;;21.80;88.50;;;;;;5017636;28;20028;-63
2022/09/16 01:50:16;;;;;;;;;;;22.00;87.40;;;;;;5033459;28;19925;-62
2022/09/16 01:52:48;;;;;;;;;;;22.00;87.40;;;;;;5031385;28;19931;-62
2022/09/16 01:55:19;;;;;;;;;;;21.70;87.30;;;;;;5029133;28;19925;-62
2022/09/16 01:57:44;;;;;;;;;;;22.00;87.50;;;;;;5030941;28;20413;-62
2022/09/16 02:00:12;;;;;;;;;;;21.70;88.50;;;;;;5024322;28;19925;-62
2022/09/16 02:02:49;;;;;;;;;;;22.00;88.50;;;;;;5013680;28;19921;-62
2022/09/16 02:05:16;;;;;;;;;;;21.70;87.60;;;;;;5011526;28;19925;-63
2022/09/16 02:07:43;;;;;;;;;;;21.90;88.90;;;;;;5005874;28;19933;-64
2022/09/16 02:10:22;;;;;;;;;;;22.00;88.90;;;;;;5050796;28;19925;-62
2022/09/16 02:12:48;;;;;;;;;;;21.90;87.40;;;;;;5038879;28;19925;-62
2022/09/16 02:15:17;;;;;;;;;;;22.00;88.50;;;;;;5056369;28;19925;-62
2022/09/16 02:17:44;;;;;;;;;;;21.80;88.70;;;;;;5050831;28;19925;-62
2022/09/16 02:20:11;;;;;;;;;;;21.80;88.80;;;;;;5048864;28;20294;-62
2022/09/16 02:22:38;;;;;;;;;;;21.70;88.70;;;;;;5054704;28;19931;-62
2022/09/16 02:25:04;;;;;;;;;;;21.80;88.80;;;;;;5049812;28;20390;-62
2022/09/16 02:27:29;;;;;;;;;;;21.80;88.20;;;;;;5041096;28;20016;-61
2022/09/16 02:29:57;;;;;;;;;;;21.90;88.40;;;;;;5054412;28;19925;-62
2022/09/16 02:32:23;;;;;;;;;;;21.50;88.60;;;;;;5055199;28;20332;-62
2022/09/16 02:34:49;;;;;;;;;;;22.20;88.80;;;;;;5050569;28;19975;-61
2022/09/16 02:37:19;;;;;;;;;;;21.90;88.80;;;;;;5035064;28;19921;-63
2022/09/16 02:39:46;;;;;;;;;;;21.90;88.80;;;;;;5010125;28;20016;-62
2022/09/16 02:42:11;;;;;;;;;;;21.90;88.60;;;;;;5021060;28;19945;-62
2022/09/16 02:44:37;;;;;;;;;;;21.70;88.50;;;;;;5056141;28;20005;-62
2022/09/16 02:47:16;;;;;;;;;;;21.70;88.50;;;;;;5071323;28;20302;-61
2022/09/16 02:49:48;;;;;;;;;;;22.00;87.40;;;;;;5051471;28;20298;-62
2022/09/16 02:52:22;;;;;;;;;;;21.60;87.20;;;;;;5056499;28;20011;-62
2022/09/16 02:54:48;;;;;;;;;;;21.70;87.20;;;;;;5056206;28;19979;-62
2022/09/16 02:57:14;;;;;;;;;;;21.90;88.50;;;;;;5036581;28;19964;-63
2022/09/16 02:59:39;;;;;;;;;;;21.90;88.50;;;;;;5043254;28;20352;-62
2022/09/16 03:02:05;;;;;;;;;;;21.80;88.50;;;;;;5052966;28;20019;-62
2022/09/16 03:04:30;;;;;;;;;;;21.80;88.70;;;;;;5055121;28;19931;-62
2022/09/16 03:06:56;;;;;;;;;;;21.70;88.40;;;;;;5037735;28;19971;-62
2022/09/16 03:09:23;;;;;;;;;;;21.70;88.60;;;;;;5054701;28;20374;-64
2022/09/16 03:12:07;;;;;;;;;;;21.90;88.60;;;;;;5052985;28;19944;-62
2022/09/16 03:14:36;;;;;;;;;;;21.80;87.50;;;;;;5036141;28;20353;-62
2022/09/16 03:17:05;;;;;;;;;;;21.70;87.40;;;;;;5042815;28;19968;-62
2022/09/16 03:19:34;;;;;;;;;;;22.00;87.50;;;;;;5017283;28;19925;-62
2022/09/16 03:22:03;;;;;;;;;;;21.50;88.70;;;;;;5045537;28;19986;-62
2022/09/16 03:24:34;;;;;;;;;;;21.80;87.50;;;;;;5035359;28;19929;-62
2022/09/16 03:27:03;;;;;;;;;;;21.60;87.40;;;;;;5035046;28;19925;-62
2022/09/16 03:29:29;;;;;;;;;;;21.60;88.80;;;;;;5033924;28;20038;-62
2022/09/16 03:32:07;;;;;;;;;;;21.70;88.50;;;;;;5058402;28;19920;-62
2022/09/16 03:34:41;;;;;;;;;;;21.90;87.50;;;;;;5037225;28;19925;-62
2022/09/16 03:37:08;;;;;;;;;;;21.70;87.40;;;;;;5048281;28;20365;-62
2022/09/16 03:39:34;;;;;;;;;;;21.80;88.70;;;;;;5038525;28;20327;-62
2022/09/16 03:42:03;;;;;;;;;;;21.70;88.50;;;;;;5037597;28;19932;-62
2022/09/16 03:44:32;;;;;;;;;;;21.60;87.30;;;;;;5053842;28;19935;-62
2022/09/16 03:46:58;;;;;;;;;;;21.60;87.30;;;;;;5036915;28;20386;-62
2022/09/16 03:49:24;;;;;;;;;;;21.80;88.60;;;;;;5054730;28;20026;-62
2022/09/16 03:51:49;;;;;;;;;;;21.70;88.50;;;;;;5017786;28;19933;-62
2022/09/16 03:54:15;;;;;;;;;;;21.40;88.40;;;;;;5051687;28;19924;-62
2022/09/16 03:56:40;;;;;;;;;;;21.70;89.10;;;;;;5035633;28;19925;-62
2022/09/16 03:59:06;;;;;;;;;;;21.50;88.40;;;;;;5047664;28;19925;-62
2022/09/16 04:01:32;;;;;;;;;;;21.40;88.20;;;;;;5034558;28;19932;-62
2022/09/16 04:03:57;;;;;;;;;;;21.70;88.60;;;;;;5043287;28;19976;-62
2022/09/16 04:06:23;;;;;;;;;;;21.60;88.40;;;;;;5039216;28;20554;-63
2022/09/16 04:08:50;;;;;;;;;;;21.50;88.50;;;;;;5053628;28;19928;-62
2022/09/16 04:11:16;;;;;;;;;;;21.50;88.50;;;;;;5054534;28;20054;-62
2022/09/16 04:13:42;;;;;;;;;;;21.50;88.50;;;;;;5052546;28;20011;-62
2022/09/16 04:16:07;;;;;;;;;;;21.30;88.20;;;;;;5045032;28;19967;-62
2022/09/16 04:18:33;;;;;;;;;;;21.50;88.40;;;;;;5046380;28;20378;-62
2022/09/16 04:20:59;;;;;;;;;;;21.50;88.40;;;;;;5054063;28;19934;-63
2022/09/16 04:23:25;;;;;;;;;;;21.60;88.70;;;;;;5025392;28;19971;-62
2022/09/16 04:25:57;;;;;;;;;;;21.40;88.40;;;;;;5049407;28;19980;-67
2022/09/16 04:28:23;;;;;;;;;;;21.50;87.20;;;;;;5053995;28;20007;-61
2022/09/16 04:30:48;;;;;;;;;;;21.60;88.50;;;;;;5036445;28;19982;-62
2022/09/16 04:33:14;;;;;;;;;;;21.60;88.60;;;;;;5053816;28;19925;-62
2022/09/16 04:35:39;;;;;;;;;;;21.40;88.30;;;;;;5035095;28;20374;-62
2022/09/16 04:38:05;;;;;;;;;;;21.50;88.50;;;;;;5035488;28;20286;-62
2022/09/16 04:40:31;;;;;;;;;;;21.50;88.40;;;;;;5053436;28;19925;-62
2022/09/16 04:42:57;;;;;;;;;;;21.60;88.60;;;;;;5034160;28;20390;-62
2022/09/16 04:45:23;;;;;;;;;;;21.70;88.60;;;;;;5033989;28;19932;-62
2022/09/16 04:47:54;;;;;;;;;;;21.70;88.50;;;;;;5037366;28;19929;-62
2022/09/16 04:50:20;;;;;;;;;;;21.40;88.60;;;;;;5037719;28;19925;-62
2022/09/16 04:52:45;;;;;;;;;;;21.60;88.50;;;;;;5016403;28;19948;-62
2022/09/16 04:55:11;;;;;;;;;;;21.50;88.40;;;;;;5044452;28;20286;-63
2022/09/16 04:57:36;;;;;;;;;;;21.70;88.70;;;;;;5031284;28;19964;-62
2022/09/16 05:00:02;;;;;;;;;;;22.80;89.00;;;;;;5051192;28;19932;-63
2022/09/16 05:02:29;;;;;;;;;;;21.50;88.40;;;;;;5053023;28;19968;-62
2022/09/16 05:04:54;;;;;;;;;;;21.40;88.50;;;;;;5053787;28;20287;-63
2022/09/16 05:07:20;;;;;;;;;;;21.40;88.20;;;;;;5032872;28;19932;-62
2022/09/16 05:09:46;;;;;;;;;;;21.30;88.10;;;;;;5051390;28;19932;-66
2022/09/16 05:12:11;;;;;;;;;;;21.60;88.40;;;;;;5053468;28;19932;-64
2022/09/16 05:14:37;;;;;;;;;;;21.60;88.50;;;;;;5035050;28;19925;-62
2022/09/16 05:17:03;;;;;;;;;;;21.50;88.20;;;;;;5028895;28;19933;-62
2022/09/16 05:19:28;;;;;;;;;;;21.40;88.10;;;;;;5016882;28;19968;-64
2022/09/16 05:21:54;;;;;;;;;;;21.50;88.30;;;;;;5048107;28;20403;-64
2022/09/16 05:24:20;;;;;;;;;;;21.70;87.90;;;;;;5032261;28;19932;-62
2022/09/16 05:26:46;;;;;;;;;;;21.40;88.10;;;;;;5034172;28;19925;-62
2022/09/16 05:29:12;;;;;;;;;;;21.50;88.20;;;;;;5030070;28;20008;-63
2022/09/16 05:31:39;;;;;;;;;;;21.60;88.50;;;;;;5020654;28;19925;-62
2022/09/16 05:34:05;;;;;;;;;;;21.50;88.50;;;;;;5018871;28;19941;-62
2022/09/16 05:36:32;;;;;;;;;;;21.40;88.00;;;;;;5013902;28;19929;-62
2022/09/16 05:38:58;;;;;;;;;;;21.40;88.20;;;;;;5013507;28;19979;-62
2022/09/16 05:41:24;;;;;;;;;;;21.30;87.70;;;;;;5025210;28;19960;-64
2022/09/16 05:43:50;;;;;;;;;;;21.50;88.10;;;;;;5015880;28;20299;-65
2022/09/16 05:46:20;;;;;;;;;;;21.60;88.20;;;;;;5036188;28;19925;-62
2022/09/16 05:48:46;;;;;;;;;;;21.60;88.40;;;;;;5021583;28;19951;-62
2022/09/16 05:51:15;;;;;;;;;;;21.50;87.90;;;;;;5021082;28;19977;-62
2022/09/16 05:53:41;;;;;;;;;;;21.50;87.00;;;;;;5036697;28;19937;-62
2022/09/16 05:56:08;;;;;;;;;;;21.60;88.10;;;;;;5031296;28;20446;-61
2022/09/16 05:58:34;;;;;;;;;;;21.60;88.30;;;;;;5035642;28;19929;-62
2022/09/16 06:01:10;;;;;;;;;;;21.80;88.00;;;;;;5033084;28;19932;-62
2022/09/16 06:03:36;;;;;;;;;;;21.60;88.20;;;;;;5026088;28;19933;-62
2022/09/16 06:06:03;;;;;;;;;;;21.80;88.20;;;;;;5027205;28;19925;-62
2022/09/16 06:08:29;;;;;;;;;;;21.50;88.00;;;;;;5017089;28;19936;-62
2022/09/16 06:10:54;;;;;;;;;;;21.80;87.80;;;;;;5016792;28;19925;-62
2022/09/16 06:13:20;;;;;;;;;;;21.80;87.70;;;;;;5026866;28;19940;-62
2022/09/16 06:15:50;;;;;;;;;;;21.80;87.40;;;;;;5044013;28;19925;-62
2022/09/16 06:18:16;;;;;;;;;;;21.70;86.50;;;;;;5034647;28;19932;-61
2022/09/16 06:20:41;;;;;;;;;;;21.70;87.70;;;;;;5036680;28;20018;-62
2022/09/16 06:23:07;;;;;;;;;;;21.80;87.50;;;;;;5044476;28;19968;-61
2022/09/16 06:25:33;;;;;;;;;;;21.80;87.30;;;;;;5039482;28;20475;-62
2022/09/16 06:27:58;;;;;;;;;;;21.80;87.50;;;;;;5048081;28;19991;-61
2022/09/16 06:30:24;;;;;;;;;;;21.60;87.30;;;;;;5055846;28;20431;-61
2022/09/16 06:32:50;;;;;;;;;;;21.60;87.50;;;;;;5052433;28;19970;-62
2022/09/16 06:35:15;;;;;;;;;;;21.80;87.50;;;;;;5054084;28;19931;-61
2022/09/16 06:37:41;;;;;;;;;;;21.60;87.20;;;;;;5048378;28;19979;-61
2022/09/16 06:40:07;;;;;;;;;;;21.90;87.20;;;;;;5042608;28;19925;-61
2022/09/16 06:42:33;;;;;;;;;;;21.80;87.30;;;;;;5056266;28;19925;-61
2022/09/16 06:44:58;;;;;;;;;;;21.60;87.30;;;;;;5052849;28;19929;-61
2022/09/16 06:47:24;;;;;;;;;;;21.70;87.10;;;;;;5051157;28;19939;-65
2022/09/16 06:49:50;;;;;;;;;;;22.00;87.40;;;;;;5055320;28;19932;-64
2022/09/16 06:52:16;;;;;;;;;;;22.00;87.10;;;;;;5055372;28;19920;-63
2022/09/16 06:54:41;;;;;;;;;;;21.90;87.30;;;;;;5055226;28;19924;-61
2022/09/16 06:57:07;;;;;;;;;;;22.00;87.00;;;;;;5062462;28;20302;-62
2022/09/16 06:59:33;;;;;;;;;;;22.20;87.30;;;;;;5054210;28;19998;-64
2022/09/16 07:01:58;;;;;;;;;;;22.00;86.60;;;;;;5055764;28;20019;-64
2022/09/16 07:04:24;;;;;;;;;;;22.20;86.90;;;;;;5054559;28;19975;-62
2022/09/16 07:06:50;;;;;;;;;;;22.50;86.70;;;;;;5050520;28;20387;-61
2022/09/16 07:09:16;;;;;;;;;;;22.50;86.40;;;;;;5055509;28;19925;-62
2022/09/16 07:11:41;;;;;;;;;;;22.70;86.30;;;;;;5055548;28;19987;-61
2022/09/16 07:14:08;;;;;;;;;;;22.70;86.00;;;;;;5054383;28;19932;-62
2022/09/16 07:16:33;;;;;;;;;;;22.50;85.50;;;;;;5053703;28;19929;-61
2022/09/16 07:18:59;;;;;;;;;;;22.70;85.20;;;;;;5049914;28;19971;-61
2022/09/16 07:21:28;;;;;;;;;;;23.10;85.20;;;;;;5036997;28;20301;-63
2022/09/16 07:23:59;;;;;;;;;;;23.10;85.20;;;;;;5053977;28;20354;-62
2022/09/16 07:26:25;;;;;;;;;;;23.30;85.10;;;;;;5036583;28;20408;-62
2022/09/16 07:28:51;;;;;;;;;;;23.40;84.90;;;;;;5054614;28;20374;-61
2022/09/16 07:31:26;;;;;;;;;;;23.30;84.50;;;;;;5045018;28;19933;-62
2022/09/16 07:33:53;;;;;;;;;;;23.70;84.40;;;;;;5053534;28;19925;-62
2022/09/16 07:36:20;;;;;;;;;;;23.80;84.20;;;;;;5054680;28;19975;-61
2022/09/16 07:38:46;;;;;;;;;;;23.80;83.90;;;;;;5055201;28;19925;-63
2022/09/16 07:41:13;;;;;;;;;;;24.00;83.60;;;;;;5048942;28;20421;-63
2022/09/16 07:43:39;;;;;;;;;;;23.70;83.70;;;;;;5039842;28;20023;-63
2022/09/16 07:46:05;;;;;;;;;;;23.50;83.60;;;;;;5043895;28;19982;-62
2022/09/16 07:48:30;;;;;;;;;;;23.70;83.30;;;;;;5051633;28;19932;-62
2022/09/16 07:50:57;;;;;;;;;;;23.80;83.30;;;;;;5035006;28;20391;-61
2022/09/16 07:53:23;;;;;;;;;;;23.90;83.50;;;;;;5034478;28;19925;-62
2022/09/16 07:55:49;;;;;;;;;;;23.90;83.30;;;;;;5034717;28;19929;-63
2022/09/16 07:58:14;;;;;;;;;;;23.90;82.80;;;;;;5053692;28;19928;-62
2022/09/16 08:00:42;;;;;;;;;;;24.10;82.70;;;;;;5053900;28;19931;-62
2022/09/16 08:03:07;;;;;;;;;;;24.20;82.70;;;;;;5036559;28;20361;-62
2022/09/16 08:05:33;;;;;;;;;;;23.90;82.10;;;;;;5054544;28;20019;-63
2022/09/16 08:07:59;;;;;;;;;;;24.10;81.50;;;;;;5052956;28;20337;-62
2022/09/16 08:10:25;;;;;;;;;;;24.30;81.80;;;;;;5035757;28;19925;-62
2022/09/16 08:12:51;;;;;;;;;;;24.20;82.10;;;;;;5054012;28;19959;-62
2022/09/16 08:15:16;;;;;;;;;;;24.20;81.70;;;;;;5054534;28;20044;-61
2022/09/16 08:17:42;;;;;;;;;;;24.30;81.80;;;;;;5049607;28;20020;-62
2022/09/16 08:20:08;;;;;;;;;;;24.30;81.80;;;;;;5034349;28;19929;-62
2022/09/16 08:22:34;;;;;;;;;;;24.30;81.90;;;;;;5050690;28;19931;-75
2022/09/16 08:24:59;;;;;;;;;;;24.50;81.30;;;;;;5035857;28;19932;-62
2022/09/16 08:27:25;;;;;;;;;;;24.50;81.90;;;;;;5053952;28;19932;-62
2022/09/16 08:29:51;;;;;;;;;;;24.70;82.00;;;;;;5053969;28;19924;-62
2022/09/16 08:32:16;;;;;;;;;;;24.60;81.40;;;;;;5042991;28;19925;-62
2022/09/16 08:34:42;;;;;;;;;;;24.50;81.60;;;;;;5050161;28;20286;-62
2022/09/16 08:37:08;;;;;;;;;;;24.80;81.60;;;;;;5054105;28;19935;-62
2022/09/16 08:39:34;;;;;;;;;;;24.80;81.70;;;;;;5044440;28;19925;-62
2022/09/16 08:42:03;;;;;;;;;;;24.80;81.50;;;;;;5035392;28;20378;-62
2022/09/16 08:44:29;;;;;;;;;;;24.50;81.50;;;;;;5057099;28;20299;-62
2022/09/16 08:46:56;;;;;;;;;;;24.90;81.20;;;;;;5054414;28;19925;-62
2022/09/16 08:49:31;;;;;;;;;;;24.80;81.50;;;;;;5053873;28;19931;-61
2022/09/16 08:51:57;;;;;;;;;;;24.70;80.00;;;;;;5053644;28;19929;-62
2022/09/16 08:54:26;;;;;;;;;;;24.80;81.40;;;;;;5037727;28;19971;-62
2022/09/16 08:56:53;;;;;;;;;;;24.90;79.90;;;;;;5040484;28;19925;-62
2022/09/16 08:59:19;;;;;;;;;;;24.80;81.30;;;;;;5049106;28;19975;-62
2022/09/16 09:01:55;;;;;;;;;;;24.90;81.30;;;;;;5049205;28;19932;-62
2022/09/16 09:04:22;;;;;;;;;;;25.20;80.00;;;;;;5043734;28;19947;-75
2022/09/16 09:07:05;;;;;;;;;;;24.80;80.30;;;;;;5045438;28;19929;-76
2022/09/16 09:09:37;;;;;;;;;;;24.90;79.70;;;;;;5033548;28;20433;-63
2022/09/16 09:12:08;;;;;;;;;;;24.90;79.60;;;;;;5033575;28;20008;-62
2022/09/16 09:14:46;;;;;;;;;;;25.00;79.60;;;;;;5045415;28;19925;-65
2022/09/16 09:17:25;;;;;;;;;;;24.90;79.60;;;;;;5033736;28;19973;-64
2022/09/16 09:19:50;;;;;;;;;;;24.80;79.60;;;;;;5037546;28;19925;-62
2022/09/16 09:22:35;;;;;;;;;;;24.80;80.70;;;;;;5037479;28;19931;-62
2022/09/16 09:25:12;;;;;;;;;;;24.70;79.70;;;;;;5032246;28;19925;-62
2022/09/16 09:27:44;;;;;;;;;;;24.80;79.70;;;;;;5048796;28;19987;-62
2022/09/16 09:30:15;;;;;;;;;;;24.70;79.80;;;;;;5056035;28;19931;-62
2022/09/16 09:32:59;;;;;;;;;;;24.80;79.80;;;;;;5039339;28;19925;-62
2022/09/16 09:35:28;;;;;;;;;;;24.60;79.70;;;;;;5055863;28;19925;-62
2022/09/16 09:38:06;;;;;;;;;;;24.90;80.00;;;;;;5049065;28;19925;-62
2022/09/16 09:40:49;;;;;;;;;;;24.30;79.80;;;;;;5045831;28;19931;-61
2022/09/16 09:43:30;;;;;;;;;;;24.60;79.90;;;;;;5037131;28;19925;-61
2022/09/16 09:45:59;;;;;;;;;;;24.60;79.50;;;;;;5034602;28;20406;-61
2022/09/16 09:48:32;;;;;;;;;;;24.50;79.20;;;;;;5047866;28;19928;-61
2022/09/16 09:51:00;;;;;;;;;;;24.60;79.30;;;;;;5021604;28;20387;-62
2022/09/16 09:53:27;;;;;;;;;;;24.20;80.40;;;;;;5055474;28;19969;-61
2022/09/16 09:56:00;;;;;;;;;;;24.40;80.50;;;;;;5049294;28;19933;-61
2022/09/16 09:58:37;;;;;;;;;;;24.70;78.40;;;;;;5067119;28;20012;-61
2022/09/16 10:01:02;;;;;;;;;;;24.50;79.10;;;;;;5072372;28;19925;-61
2022/09/16 10:03:28;;;;;;;;;;;24.60;78.30;;;;;;5056691;28;20302;-67
2022/09/16 10:05:55;;;;;;;;;;;24.40;78.50;;;;;;5042632;28;19925;-61
2022/09/16 10:08:23;;;;;;;;;;;24.50;78.10;;;;;;5038886;28;20337;-64
2022/09/16 10:10:51;;;;;;;;;;;24.50;78.20;;;;;;5056561;28;19932;-63
2022/09/16 10:13:18;;;;;;;;;;;24.60;78.80;;;;;;5056609;28;19925;-62
2022/09/16 10:15:44;;;;;;;;;;;24.40;78.40;;;;;;5055831;28;19925;-61
2022/09/16 10:18:13;;;;;;;;;;;24.50;78.60;;;;;;5036702;28;20028;-65
2022/09/16 10:20:41;;;;;;;;;;;24.20;77.30;;;;;;5050071;28;20334;-73
2022/09/16 10:23:12;;;;;;;;;;;24.10;78.80;;;;;;5070569;28;20063;-74
2022/09/16 10:25:38;;;;;;;;;;;24.40;77.70;;;;;;5056400;28;19943;-73
2022/09/16 10:28:04;;;;;;;;;;;24.10;78.80;;;;;;5056450;28;20370;-61
2022/09/16 10:30:31;;;;;;;;;;;24.30;79.00;;;;;;5052601;28;20014;-62
2022/09/16 10:33:10;;;;;;;;;;;24.30;78.80;;;;;;5055171;28;20011;-62
2022/09/16 10:35:36;;;;;;;;;;;24.10;78.60;;;;;;5056435;28;19925;-61
2022/09/16 10:38:12;;;;;;;;;;;24.10;78.20;;;;;;5052193;28;20011;-62
2022/09/16 10:40:38;;;;;;;;;;;24.00;76.20;;;;;;5071754;28;20386;-62
2022/09/16 10:43:05;;;;;;;;;;;24.00;77.70;;;;;;5071447;28;20011;-62
2022/09/16 10:45:37;;;;;;;;;;;24.10;77.90;;;;;;5056246;28;19924;-61
2022/09/16 10:48:07;;;;;;;;;;;24.10;76.90;;;;;;5070349;28;19925;-79
2022/09/16 10:50:32;;;;;;;;;;;24.10;78.20;;;;;;5036177;28;19925;-68
2022/09/16 10:52:58;;;;;;;;;;;24.30;78.50;;;;;;5038488;28;19936;-62
2022/09/16 10:55:25;;;;;;;;;;;24.10;78.30;;;;;;5065313;28;19935;-63
2022/09/16 10:57:51;;;;;;;;;;;24.20;78.50;;;;;;5068486;28;20309;-66
2022/09/16 11:00:17;;;;;;;;;;;24.10;78.20;;;;;;5055896;28;20036;-61
2022/09/16 11:03:02;;;;;;;;;;;24.10;78.50;;;;;;5055952;28;19925;-61
2022/09/16 11:05:27;;;;;;;;;;;24.40;77.50;;;;;;5055556;28;19929;-61
2022/09/16 11:08:13;;;;;;;;;;;24.10;78.50;;;;;;5054906;28;20092;-62
2022/09/16 11:10:48;;;;;;;;;;;24.00;78.50;;;;;;5035043;28;19932;-61
2022/09/16 11:13:19;;;;;;;;;;;24.20;77.00;;;;;;5049924;28;19925;-62
2022/09/16 11:15:47;;;;;;;;;;;24.20;76.90;;;;;;5059054;28;19925;-61
2022/09/16 11:18:49;;;;;;;;;;;24.10;76.70;;;;;;5049750;28;19931;-69
2022/09/16 11:21:20;;;;;;;;;;;24.10;76.50;;;;;;5002379;28;19936;-61
2022/09/16 11:23:59;;;;;;;;;;;24.20;76.40;;;;;;5013678;28;20394;-61
2022/09/16 11:26:25;;;;;;;;;;;24.20;76.20;;;;;;5013381;28;19926;-61
2022/09/16 11:29:06;;;;;;;;;;;24.30;77.60;;;;;;5010090;28;19933;-65
2022/09/16 11:31:47;;;;;;;;;;;24.40;75.80;;;;;;5012388;28;19937;-63
2022/09/16 11:34:15;;;;;;;;;;;24.20;75.70;;;;;;4992790;28;19947;-63
2022/09/16 11:36:44;;;;;;;;;;;24.40;75.70;;;;;;5006074;28;19928;-63
2022/09/16 11:39:28;;;;;;;;;;;24.50;75.70;;;;;;5005848;28;19926;-63
2022/09/16 11:42:17;;;;;;;;;;;24.30;75.30;;;;;;5001547;28;19926;-65
2022/09/16 11:44:52;;;;;;;;;;;24.10;75.30;;;;;;4936354;29;19927;-63
2022/09/16 11:47:24;;;;;;;;;;;24.40;75.30;;;;;;4933595;29;19941;-62
2022/09/16 11:49:58;;;;;;;;;;;24.40;75.30;;;;;;4919831;29;19927;-62
2022/09/16 11:52:24;;;;;;;;;;;24.30;75.40;;;;;;4935519;29;20361;-69
2022/09/16 11:55:08;;;;;;;;;;;24.40;76.40;;;;;;4932729;28;19969;-62
2022/09/16 11:57:35;;;;;;;;;;;24.70;75.30;;;;;;4971381;28;19926;-62
2022/09/16 12:00:05;;;;;;;;;;;24.60;76.20;;;;;;4958530;28;19926;-62
2022/09/16 12:02:43;;;;;;;;;;;24.40;74.40;;;;;;5128560;27;20286;-65
2022/09/16 12:05:12;;;;;;;;;;;24.40;75.00;;;;;;5110931;28;20023;-61
2022/09/16 12:07:47;;;;;;;;;;;24.50;74.50;;;;;;5109159;28;19994;-60
2022/09/16 12:10:40;;;;;;;;;;;24.40;74.50;;;;;;5122152;28;19924;-61
2022/09/16 12:13:12;;;;;;;;;;;24.20;74.60;;;;;;5107748;28;19931;-60
2022/09/16 12:15:43;;;;;;;;;;;24.40;76.20;;;;;;5144088;27;19920;-60
2022/09/16 12:18:19;;;;;;;;;;;24.30;74.60;;;;;;5142864;27;19945;-61
2022/09/16 12:20:45;;;;;;;;;;;24.30;74.90;;;;;;5096689;28;19947;-61
2022/09/16 12:23:11;;;;;;;;;;;24.30;76.50;;;;;;5101057;28;20255;-60
2022/09/16 12:25:38;;;;;;;;;;;24.30;75.80;;;;;;5091126;28;19920;-63
2022/09/16 12:28:23;;;;;;;;;;;24.30;76.70;;;;;;5089831;28;19977;-61
2022/09/16 12:30:52;;;;;;;;;;;24.20;75.30;;;;;;5109239;28;20022;-61
2022/09/16 12:33:28;;;;;;;;;;;24.10;76.70;;;;;;5109477;28;19964;-61
2022/09/16 12:35:58;;;;;;;;;;;24.00;75.60;;;;;;5111119;28;19924;-61
2022/09/16 12:38:23;;;;;;;;;;;24.10;75.70;;;;;;5127722;27;20023;-61
2022/09/16 12:40:56;;;;;;;;;;;24.00;77.00;;;;;;5101654;28;20015;-61
2022/09/16 12:43:36;;;;;;;;;;;24.20;77.40;;;;;;5126282;28;19924;-61
2022/09/16 12:46:10;;;;;;;;;;;24.30;76.30;;;;;;5100232;28;19921;-61
2022/09/16 12:48:41;;;;;;;;;;;24.00;76.30;;;;;;5090822;28;19994;-61
2022/09/16 12:51:13;;;;;;;;;;;24.00;77.80;;;;;;5089618;28;19971;-61
2022/09/16 12:53:45;;;;;;;;;;;24.10;76.70;;;;;;5091933;28;19924;-61
2022/09/16 12:56:17;;;;;;;;;;;24.00;76.70;;;;;;5110134;28;19943;-61
2022/09/16 12:59:02;;;;;;;;;;;23.90;78.10;;;;;;5109889;28;19935;-61
2022/09/16 13:01:34;;;;;;;;;;;23.90;76.80;;;;;;5110587;28;19934;-61
2022/09/16 13:04:02;;;;;;;;;;;24.00;76.90;;;;;;5110592;28;20014;-61
2022/09/16 13:06:29;;;;;;;;;;;24.10;78.40;;;;;;5109032;28;19919;-61
2022/09/16 13:08:55;;;;;;;;;;;23.90;78.20;;;;;;5143599;27;19931;-61
2022/09/16 13:11:27;;;;;;;;;;;24.10;77.80;;;;;;5102701;28;19921;-61
2022/09/16 13:13:58;;;;;;;;;;;23.80;77.20;;;;;;5078909;28;20321;-61
2022/09/16 13:16:32;;;;;;;;;;;23.80;77.20;;;;;;5096772;28;19927;-61
2022/09/16 13:19:17;;;;;;;;;;;24.00;77.40;;;;;;5076422;28;19925;-64
2022/09/16 13:21:44;;;;;;;;;;;24.10;77.50;;;;;;5076444;28;19935;-61
2022/09/16 13:24:17;;;;;;;;;;;23.70;78.40;;;;;;5093216;28;20328;-62
2022/09/16 13:26:43;;;;;;;;;;;24.00;76.60;;;;;;5088385;28;20388;-61
2022/09/16 13:29:28;;;;;;;;;;;23.70;78.00;;;;;;5090267;28;19932;-61
2022/09/16 13:31:53;;;;;;;;;;;23.80;76.80;;;;;;5094278;28;20393;-61
2022/09/16 13:34:20;;;;;;;;;;;23.80;77.80;;;;;;5081606;28;19931;-61
2022/09/16 13:36:46;;;;;;;;;;;23.80;77.50;;;;;;5091670;28;20356;-61
2022/09/16 13:39:13;;;;;;;;;;;23.80;78.00;;;;;;5096388;28;20014;-60
2022/09/16 13:41:45;;;;;;;;;;;23.70;77.70;;;;;;5091638;28;19975;-66
2022/09/16 13:44:38;;;;;;;;;;;23.80;76.70;;;;;;5127626;27;20366;-61
2022/09/16 13:47:13;;;;;;;;;;;23.90;76.80;;;;;;5075906;28;19930;-60
2022/09/16 13:49:47;;;;;;;;;;;23.80;76.80;;;;;;5075878;28;20354;-61
2022/09/16 13:52:18;;;;;;;;;;;23.90;77.00;;;;;;5078219;28;19932;-61
2022/09/16 13:54:49;;;;;;;;;;;23.60;76.90;;;;;;5094770;28;20453;-61
2022/09/16 13:57:18;;;;;;;;;;;23.80;77.00;;;;;;5095149;28;19931;-61
2022/09/16 13:59:45;;;;;;;;;;;23.80;78.50;;;;;;5095103;28;19964;-61
2022/09/16 14:02:10;;;;;;;;;;;23.70;77.50;;;;;;5088779;28;20349;-61
2022/09/16 14:04:45;;;;;;;;;;;23.80;77.90;;;;;;5078296;28;19967;-60
2022/09/16 14:07:26;;;;;;;;;;;23.60;77.20;;;;;;5075625;28;19970;-61
2022/09/16 14:09:59;;;;;;;;;;;23.70;77.30;;;;;;5079007;28;19975;-61
2022/09/16 14:12:31;;;;;;;;;;;23.80;77.30;;;;;;5076583;28;20031;-61
2022/09/16 14:14:58;;;;;;;;;;;23.60;77.40;;;;;;5083044;28;20346;-61
2022/09/16 14:17:31;;;;;;;;;;;23.60;78.80;;;;;;5085681;28;20022;-61
2022/09/16 14:19:57;;;;;;;;;;;23.50;77.50;;;;;;5085214;28;19930;-62
2022/09/16 14:22:25;;;;;;;;;;;23.70;79.10;;;;;;5074273;28;20313;-60
2022/09/16 14:24:51;;;;;;;;;;;23.50;78.90;;;;;;5074519;28;20011;-61
2022/09/16 14:27:21;;;;;;;;;;;23.60;78.90;;;;;;5078515;28;20035;-62
2022/09/16 14:29:59;;;;;;;;;;;23.70;78.00;;;;;;5087323;28;19924;-60